sensor_id;sensor_type;location;lat;lon;timestamp;pressure;altitude;pressure_sealevel;temperature;humidity
28344;BME280;15597;50.914;6.638;2023-08-08T00:00:37;100798.63;;;20.96;46.49
28344;BME280;15597;50.914;6.638;2023-08-08T00:03:03;100796.91;;;20.95;46.37
28344;BME280;15597;50.914;6.638;2023-08-08T00:05:29;100803.28;;;20.92;46.39
28344;BME280;15597;50.914;6.638;2023-08-08T00:07:55;100789.31;;;20.89;46.13
28344;BME280;15597;50.914;6.638;2023-08-08T00:10:21;100780.56;;;20.86;46.17
28344;BME280;15597;50.914;6.638;2023-08-08T00:12:47;100783.00;;;20.75;46.31
28344;BME280;15597;50.914;6.638;2023-08-08T00:15:12;100782.53;;;20.68;46.46
28344;BME280;15597;50.914;6.638;2023-08-08T00:17:38;100781.94;;;20.63;46.58
28344;BME280;15597;50.914;6.638;2023-08-08T00:20:04;100778.81;;;20.56;46.10
28344;BME280;15597;50.914;6.638;2023-08-08T00:22:30;100779.00;;;20.53;46.53
28344;BME280;15597;50.914;6.638;2023-08-08T00:24:55;100780.91;;;20.51;46.64
28344;BME280;15597;50.914;6.638;2023-08-08T00:27:21;100778.44;;;20.48;46.56
28344;BME280;15597;50.914;6.638;2023-08-08T00:29:47;100775.09;;;20.44;46.51
28344;BME280;15597;50.914;6.638;2023-08-08T00:32:12;100772.53;;;20.43;46.46
28344;BME280;15597;50.914;6.638;2023-08-08T00:34:38;100773.38;;;20.43;46.48
28344;BME280;15597;50.914;6.638;2023-08-08T00:37:04;100763.81;;;20.41;46.56
28344;BME280;15597;50.914;6.638;2023-08-08T00:39:29;100759.63;;;20.37;46.88
28344;BME280;15597;50.914;6.638;2023-08-08T00:41:55;100767.59;;;20.37;46.72
28344;BME280;15597;50.914;6.638;2023-08-08T00:44:21;100770.44;;;20.34;46.80
28344;BME280;15597;50.914;6.638;2023-08-08T00:46:47;100768.72;;;20.33;47.22
28344;BME280;15597;50.914;6.638;2023-08-08T00:49:13;100761.59;;;20.33;46.99
28344;BME280;15597;50.914;6.638;2023-08-08T00:51:38;100758.94;;;20.33;47.38
28344;BME280;15597;50.914;6.638;2023-08-08T00:54:04;100760.94;;;20.29;47.29
28344;BME280;15597;50.914;6.638;2023-08-08T00:56:31;100761.13;;;20.26;47.02
28344;BME280;15597;50.914;6.638;2023-08-08T00:58:57;100758.72;;;20.22;47.30
28344;BME280;15597;50.914;6.638;2023-08-08T01:01:23;100757.88;;;20.21;47.30
28344;BME280;15597;50.914;6.638;2023-08-08T01:03:49;100759.78;;;20.19;47.28
28344;BME280;15597;50.914;6.638;2023-08-08T01:09:57;100748.13;;;20.06;47.55
28344;BME280;15597;50.914;6.638;2023-08-08T01:12:27;100754.41;;;20.05;47.74
28344;BME280;15597;50.914;6.638;2023-08-08T01:14:53;100757.06;;;20.05;47.60
28344;BME280;15597;50.914;6.638;2023-08-08T01:17:21;100758.09;;;20.02;47.54
28344;BME280;15597;50.914;6.638;2023-08-08T01:19:47;100754.50;;;20.03;47.43
28344;BME280;15597;50.914;6.638;2023-08-08T01:22:29;100754.75;;;19.98;47.57
28344;BME280;15597;50.914;6.638;2023-08-08T01:24:59;100760.84;;;20.00;47.61
28344;BME280;15597;50.914;6.638;2023-08-08T01:27:25;100761.72;;;20.01;47.86
28344;BME280;15597;50.914;6.638;2023-08-08T01:29:50;100763.50;;;20.00;47.97
28344;BME280;15597;50.914;6.638;2023-08-08T01:32:16;100759.88;;;20.02;47.64
28344;BME280;15597;50.914;6.638;2023-08-08T01:34:42;100766.06;;;20.02;47.69
28344;BME280;15597;50.914;6.638;2023-08-08T01:37:18;100758.34;;;19.97;47.87
28344;BME280;15597;50.914;6.638;2023-08-08T01:39:46;100757.59;;;19.95;48.00
28344;BME280;15597;50.914;6.638;2023-08-08T01:42:14;100752.56;;;19.91;47.71
28344;BME280;15597;50.914;6.638;2023-08-08T01:44:41;100755.25;;;19.89;48.05
28344;BME280;15597;50.914;6.638;2023-08-08T01:47:08;100758.09;;;19.86;48.12
28344;BME280;15597;50.914;6.638;2023-08-08T01:49:34;100748.59;;;19.82;48.36
28344;BME280;15597;50.914;6.638;2023-08-08T01:52:00;100754.00;;;19.80;48.25
28344;BME280;15597;50.914;6.638;2023-08-08T01:54:25;100763.88;;;19.78;48.42
28344;BME280;15597;50.914;6.638;2023-08-08T01:56:51;100757.78;;;19.76;48.49
28344;BME280;15597;50.914;6.638;2023-08-08T01:59:17;100755.03;;;19.78;48.47
28344;BME280;15597;50.914;6.638;2023-08-08T02:01:42;100755.03;;;19.78;48.46
28344;BME280;15597;50.914;6.638;2023-08-08T02:04:08;100757.69;;;19.78;48.56
28344;BME280;15597;50.914;6.638;2023-08-08T02:06:33;100748.88;;;19.77;48.41
28344;BME280;15597;50.914;6.638;2023-08-08T02:08:59;100747.06;;;19.78;48.65
28344;BME280;15597;50.914;6.638;2023-08-08T02:11:25;100749.72;;;19.78;48.45
28344;BME280;15597;50.914;6.638;2023-08-08T02:13:50;100749.91;;;19.75;48.51
28344;BME280;15597;50.914;6.638;2023-08-08T02:16:16;100750.94;;;19.72;48.59
28344;BME280;15597;50.914;6.638;2023-08-08T02:18:42;100746.47;;;19.73;48.60
28344;BME280;15597;50.914;6.638;2023-08-08T02:21:08;100742.13;;;19.71;48.63
28344;BME280;15597;50.914;6.638;2023-08-08T02:23:34;100738.63;;;19.71;48.73
28344;BME280;15597;50.914;6.638;2023-08-08T02:25:59;100737.94;;;19.67;48.72
28344;BME280;15597;50.914;6.638;2023-08-08T02:28:25;100724.75;;;19.66;48.79
28344;BME280;15597;50.914;6.638;2023-08-08T02:30:51;100718.56;;;19.65;48.96
28344;BME280;15597;50.914;6.638;2023-08-08T02:33:16;100724.75;;;19.66;48.78
28344;BME280;15597;50.914;6.638;2023-08-08T02:35:42;100721.16;;;19.67;48.72
28344;BME280;15597;50.914;6.638;2023-08-08T02:38:08;100712.31;;;19.66;48.58
28344;BME280;15597;50.914;6.638;2023-08-08T02:40:34;100715.75;;;19.68;48.72
28344;BME280;15597;50.914;6.638;2023-08-08T02:43:00;100713.97;;;19.69;48.69
28344;BME280;15597;50.914;6.638;2023-08-08T02:45:26;100719.44;;;19.66;48.75
28344;BME280;15597;50.914;6.638;2023-08-08T02:47:52;100710.78;;;19.62;48.72
28344;BME280;15597;50.914;6.638;2023-08-08T02:50:18;100702.91;;;19.61;48.78
28344;BME280;15597;50.914;6.638;2023-08-08T02:52:44;100701.13;;;19.61;48.87
28344;BME280;15597;50.914;6.638;2023-08-08T02:55:10;100699.59;;;19.57;48.84
28344;BME280;15597;50.914;6.638;2023-08-08T02:57:37;100695.31;;;19.54;48.92
28344;BME280;15597;50.914;6.638;2023-08-08T03:00:03;100690.09;;;19.53;49.07
28344;BME280;15597;50.914;6.638;2023-08-08T03:02:34;100691.22;;;19.49;48.98
28344;BME280;15597;50.914;6.638;2023-08-08T03:05:01;100695.47;;;19.51;49.02
28344;BME280;15597;50.914;6.638;2023-08-08T03:07:26;100692.94;;;19.50;48.98
28344;BME280;15597;50.914;6.638;2023-08-08T03:09:52;100691.56;;;19.42;49.03
28344;BME280;15597;50.914;6.638;2023-08-08T03:12:18;100696.19;;;19.39;49.21
28344;BME280;15597;50.914;6.638;2023-08-08T03:14:44;100700.66;;;19.38;49.19
28344;BME280;15597;50.914;6.638;2023-08-08T03:17:09;100698.00;;;19.38;49.35
28344;BME280;15597;50.914;6.638;2023-08-08T03:19:35;100690.03;;;19.38;49.27
28344;BME280;15597;50.914;6.638;2023-08-08T03:22:02;100686.44;;;19.39;49.39
28344;BME280;15597;50.914;6.638;2023-08-08T03:24:27;100685.75;;;19.36;49.43
28344;BME280;15597;50.914;6.638;2023-08-08T03:26:53;100679.59;;;19.35;49.43
28344;BME280;15597;50.914;6.638;2023-08-08T03:29:19;100677.88;;;19.34;49.39
28344;BME280;15597;50.914;6.638;2023-08-08T03:31:47;100675.31;;;19.33;49.54
28344;BME280;15597;50.914;6.638;2023-08-08T03:34:13;100679.06;;;19.29;49.54
28344;BME280;15597;50.914;6.638;2023-08-08T03:36:41;100681.84;;;19.27;49.69
28344;BME280;15597;50.914;6.638;2023-08-08T03:39:08;100682.00;;;19.24;49.63
28344;BME280;15597;50.914;6.638;2023-08-08T03:41:34;100681.25;;;19.22;49.73
28344;BME280;15597;50.914;6.638;2023-08-08T03:43:59;100666.44;;;19.18;49.83
28344;BME280;15597;50.914;6.638;2023-08-08T03:46:25;100677.06;;;19.18;49.91
28344;BME280;15597;50.914;6.638;2023-08-08T03:48:51;100668.31;;;19.16;50.03
28344;BME280;15597;50.914;6.638;2023-08-08T03:51:17;100668.75;;;19.08;50.20
28344;BME280;15597;50.914;6.638;2023-08-08T03:53:42;100677.03;;;19.02;50.36
28344;BME280;15597;50.914;6.638;2023-08-08T03:56:08;100674.38;;;19.02;50.46
28344;BME280;15597;50.914;6.638;2023-08-08T03:58:34;100673.69;;;18.98;50.55
28344;BME280;15597;50.914;6.638;2023-08-08T04:00:59;100668.63;;;18.93;50.58
28344;BME280;15597;50.914;6.638;2023-08-08T04:03:25;100666.03;;;18.92;50.76
28344;BME280;15597;50.914;6.638;2023-08-08T04:05:51;100668.69;;;18.92;50.77
28344;BME280;15597;50.914;6.638;2023-08-08T04:08:16;100668.69;;;18.92;50.77
28344;BME280;15597;50.914;6.638;2023-08-08T04:10:43;100664.16;;;18.94;50.88
28344;BME280;15597;50.914;6.638;2023-08-08T04:13:10;100669.47;;;18.94;50.76
28344;BME280;15597;50.914;6.638;2023-08-08T04:15:36;100668.63;;;18.93;50.87
28344;BME280;15597;50.914;6.638;2023-08-08T04:18:01;100676.59;;;18.93;50.99
28344;BME280;15597;50.914;6.638;2023-08-08T04:20:27;100669.63;;;18.91;51.10
28344;BME280;15597;50.914;6.638;2023-08-08T04:22:52;100675.88;;;18.90;51.11
28344;BME280;15597;50.914;6.638;2023-08-08T04:25:18;100680.41;;;18.88;51.17
28344;BME280;15597;50.914;6.638;2023-08-08T04:27:45;100683.34;;;18.83;51.24
28344;BME280;15597;50.914;6.638;2023-08-08T04:30:10;100679.03;;;18.80;51.40
28344;BME280;15597;50.914;6.638;2023-08-08T04:32:36;100689.66;;;18.80;51.47
28344;BME280;15597;50.914;6.638;2023-08-08T04:35:02;100679.03;;;18.80;51.47
28344;BME280;15597;50.914;6.638;2023-08-08T04:37:28;100671.84;;;18.82;51.60
28344;BME280;15597;50.914;6.638;2023-08-08T04:39:53;100673.75;;;18.80;51.59
28344;BME280;15597;50.914;6.638;2023-08-08T04:42:19;100673.75;;;18.80;51.57
28344;BME280;15597;50.914;6.638;2023-08-08T04:44:44;100680.75;;;18.81;51.59
28344;BME280;15597;50.914;6.638;2023-08-08T04:47:10;100680.75;;;18.81;51.62
28344;BME280;15597;50.914;6.638;2023-08-08T04:49:36;100673.75;;;18.80;51.78
28344;BME280;15597;50.914;6.638;2023-08-08T04:52:01;100673.91;;;18.77;51.75
28344;BME280;15597;50.914;6.638;2023-08-08T04:54:27;100671.25;;;18.77;51.81
28344;BME280;15597;50.914;6.638;2023-08-08T04:56:53;100678.53;;;18.74;52.13
28344;BME280;15597;50.914;6.638;2023-08-08T04:59:19;100681.25;;;18.72;51.97
28344;BME280;15597;50.914;6.638;2023-08-08T05:01:44;100679.38;;;18.74;52.10
28344;BME280;15597;50.914;6.638;2023-08-08T05:04:10;100686.38;;;18.75;52.08
28344;BME280;15597;50.914;6.638;2023-08-08T05:06:36;100676.66;;;18.76;52.21
28344;BME280;15597;50.914;6.638;2023-08-08T05:09:01;100665.19;;;18.75;52.07
28344;BME280;15597;50.914;6.638;2023-08-08T05:11:27;100671.84;;;18.82;52.05
28344;BME280;15597;50.914;6.638;2023-08-08T05:13:53;100670.69;;;18.88;52.05
28344;BME280;15597;50.914;6.638;2023-08-08T05:16:18;100667.31;;;18.84;52.34
28344;BME280;15597;50.914;6.638;2023-08-08T05:18:44;100671.53;;;18.89;52.41
28344;BME280;15597;50.914;6.638;2023-08-08T05:21:10;100667.84;;;18.91;52.29
28344;BME280;15597;50.914;6.638;2023-08-08T05:23:36;100659.72;;;18.94;52.20
28344;BME280;15597;50.914;6.638;2023-08-08T05:26:02;100674.63;;;18.97;52.15
28344;BME280;15597;50.914;6.638;2023-08-08T05:28:28;100674.47;;;19.00;52.07
28344;BME280;15597;50.914;6.638;2023-08-08T05:30:54;100667.44;;;18.99;52.22
28344;BME280;15597;50.914;6.638;2023-08-08T05:33:22;100672.56;;;19.02;51.97
28344;BME280;15597;50.914;6.638;2023-08-08T05:35:47;100669.16;;;19.00;52.35
28344;BME280;15597;50.914;6.638;2023-08-08T05:38:13;100668.16;;;19.03;52.21
28344;BME280;15597;50.914;6.638;2023-08-08T05:40:39;100665.41;;;19.04;52.17
28344;BME280;15597;50.914;6.638;2023-08-08T05:43:04;100665.22;;;19.07;52.36
28344;BME280;15597;50.914;6.638;2023-08-08T05:45:30;100667.88;;;19.07;52.27
28344;BME280;15597;50.914;6.638;2023-08-08T05:47:57;100667.72;;;19.10;52.20
28344;BME280;15597;50.914;6.638;2023-08-08T05:50:25;100659.59;;;19.14;52.21
28344;BME280;15597;50.914;6.638;2023-08-08T05:52:50;100664.72;;;19.17;52.25
28344;BME280;15597;50.914;6.638;2023-08-08T05:55:16;100664.72;;;19.17;52.47
28344;BME280;15597;50.914;6.638;2023-08-08T05:57:41;100667.56;;;19.14;52.27
28344;BME280;15597;50.914;6.638;2023-08-08T06:00:08;100670.22;;;19.14;52.26
28344;BME280;15597;50.914;6.638;2023-08-08T06:02:39;100671.81;;;19.16;52.43
28344;BME280;15597;50.914;6.638;2023-08-08T06:05:05;100677.06;;;19.18;52.20
28344;BME280;15597;50.914;6.638;2023-08-08T06:07:31;100676.28;;;19.16;52.04
28344;BME280;15597;50.914;6.638;2023-08-08T06:09:56;100678.94;;;19.16;52.35
28344;BME280;15597;50.914;6.638;2023-08-08T06:12:22;100676.19;;;19.17;52.42
28344;BME280;15597;50.914;6.638;2023-08-08T06:14:47;100683.03;;;19.21;52.40
28344;BME280;15597;50.914;6.638;2023-08-08T06:17:13;100682.00;;;19.24;52.48
28344;BME280;15597;50.914;6.638;2023-08-08T06:19:40;100689.03;;;19.25;52.63
28344;BME280;15597;50.914;6.638;2023-08-08T06:22:06;100687.31;;;19.24;52.45
28344;BME280;15597;50.914;6.638;2023-08-08T06:24:31;100682.66;;;19.27;52.38
28344;BME280;15597;50.914;6.638;2023-08-08T06:26:57;100686.97;;;19.30;52.30
28344;BME280;15597;50.914;6.638;2023-08-08T06:29:23;100694.81;;;19.32;52.17
28344;BME280;15597;50.914;6.638;2023-08-08T06:31:48;100701.00;;;19.32;52.27
28344;BME280;15597;50.914;6.638;2023-08-08T06:34:14;100696.34;;;19.36;52.00
28344;BME280;15597;50.914;6.638;2023-08-08T06:36:40;100702.34;;;19.39;52.15
28344;BME280;15597;50.914;6.638;2023-08-08T06:39:06;100690.69;;;19.42;52.04
28344;BME280;15597;50.914;6.638;2023-08-08T06:41:32;100695.00;;;19.45;52.12
28344;BME280;15597;50.914;6.638;2023-08-08T06:43:58;100699.34;;;19.46;52.34
28344;BME280;15597;50.914;6.638;2023-08-08T06:46:24;100692.16;;;19.48;52.13
28344;BME280;15597;50.914;6.638;2023-08-08T06:48:50;100684.88;;;19.51;52.02
28344;BME280;15597;50.914;6.638;2023-08-08T06:51:18;100693.53;;;19.39;52.19
28344;BME280;15597;50.914;6.638;2023-08-08T06:53:44;100695.00;;;19.45;52.30
28344;BME280;15597;50.914;6.638;2023-08-08T06:56:09;100694.63;;;19.51;51.82
28344;BME280;15597;50.914;6.638;2023-08-08T06:58:35;100701.47;;;19.55;51.83
28344;BME280;15597;50.914;6.638;2023-08-08T07:01:01;100691.53;;;19.59;52.03
28344;BME280;15597;50.914;6.638;2023-08-08T07:03:26;100691.38;;;19.62;52.26
28344;BME280;15597;50.914;6.638;2023-08-08T07:05:52;100690.06;;;19.69;52.10
28344;BME280;15597;50.914;6.638;2023-08-08T07:08:19;100682.88;;;19.71;52.15
28344;BME280;15597;50.914;6.638;2023-08-08T07:10:45;100681.75;;;19.75;51.67
28344;BME280;15597;50.914;6.638;2023-08-08T07:13:11;100686.00;;;19.78;52.22
28344;BME280;15597;50.914;6.638;2023-08-08T07:15:36;100689.06;;;19.86;51.63
28344;BME280;15597;50.914;6.638;2023-08-08T07:18:03;100680.06;;;19.89;51.67
28344;BME280;15597;50.914;6.638;2023-08-08T07:20:29;100686.94;;;19.93;51.83
28344;BME280;15597;50.914;6.638;2023-08-08T07:22:55;100686.84;;;19.94;51.70
28344;BME280;15597;50.914;6.638;2023-08-08T07:25:21;100690.06;;;19.99;51.82
28344;BME280;15597;50.914;6.638;2023-08-08T07:27:46;100692.47;;;20.04;51.93
28344;BME280;15597;50.914;6.638;2023-08-08T07:30:12;100685.91;;;20.10;51.75
28344;BME280;15597;50.914;6.638;2023-08-08T07:32:38;100678.72;;;20.12;51.61
28344;BME280;15597;50.914;6.638;2023-08-08T07:35:05;100679.41;;;20.16;51.46
28344;BME280;15597;50.914;6.638;2023-08-08T07:37:32;100683.50;;;20.21;51.18
28344;BME280;15597;50.914;6.638;2023-08-08T07:39:58;100672.88;;;20.21;51.17
28344;BME280;15597;50.914;6.638;2023-08-08T07:42:24;100684.34;;;20.22;51.18
28344;BME280;15597;50.914;6.638;2023-08-08T07:44:49;100680.66;;;20.24;51.27
28344;BME280;15597;50.914;6.638;2023-08-08T07:47:15;100679.50;;;20.28;51.64
28344;BME280;15597;50.914;6.638;2023-08-08T07:49:41;100682.81;;;20.32;51.16
28344;BME280;15597;50.914;6.638;2023-08-08T07:52:07;100680.75;;;20.37;51.05
28344;BME280;15597;50.914;6.638;2023-08-08T07:54:34;100677.06;;;20.40;50.69
28344;BME280;15597;50.914;6.638;2023-08-08T07:57:00;100676.09;;;20.41;50.95
28344;BME280;15597;50.914;6.638;2023-08-08T07:59:25;100682.38;;;20.40;50.71
28344;BME280;15597;50.914;6.638;2023-08-08T08:01:52;100677.88;;;20.40;50.94
28344;BME280;15597;50.914;6.638;2023-08-08T08:04:17;100674.28;;;20.41;51.02
28344;BME280;15597;50.914;6.638;2023-08-08T08:06:43;100680.09;;;20.48;50.60
28344;BME280;15597;50.914;6.638;2023-08-08T08:09:09;100679.22;;;20.48;50.82
28344;BME280;15597;50.914;6.638;2023-08-08T08:11:34;100675.41;;;20.52;50.67
28344;BME280;15597;50.914;6.638;2023-08-08T08:14:00;100672.88;;;20.50;50.67
28344;BME280;15597;50.914;6.638;2023-08-08T08:16:25;100675.22;;;20.55;51.33
28344;BME280;15597;50.914;6.638;2023-08-08T08:18:51;100673.88;;;20.62;51.17
28344;BME280;15597;50.914;6.638;2023-08-08T08:21:17;100672.75;;;20.66;50.45
28344;BME280;15597;50.914;6.638;2023-08-08T08:23:43;100667.91;;;20.73;50.68
28344;BME280;15597;50.914;6.638;2023-08-08T08:26:10;100664.97;;;20.78;50.25
28344;BME280;15597;50.914;6.638;2023-08-08T08:28:35;100672.69;;;20.82;50.55
28344;BME280;15597;50.914;6.638;2023-08-08T08:31:07;100667.34;;;20.82;50.51
28344;BME280;15597;50.914;6.638;2023-08-08T08:33:33;100665.19;;;20.89;50.19
28344;BME280;15597;50.914;6.638;2023-08-08T08:35:58;100662.13;;;20.95;50.04
28344;BME280;15597;50.914;6.638;2023-08-08T08:38:24;100668.09;;;20.99;50.29
28344;BME280;15597;50.914;6.638;2023-08-08T08:40:52;100666.19;;;21.01;49.67
28344;BME280;15597;50.914;6.638;2023-08-08T08:43:19;100668.66;;;21.04;49.85
28344;BME280;15597;50.914;6.638;2023-08-08T08:45:50;100669.50;;;21.05;49.66
28344;BME280;15597;50.914;6.638;2023-08-08T08:48:17;100667.28;;;21.11;49.77
28344;BME280;15597;50.914;6.638;2023-08-08T08:50:47;100665.38;;;21.13;49.78
28344;BME280;15597;50.914;6.638;2023-08-08T08:53:13;100674.50;;;21.24;49.19
28344;BME280;15597;50.914;6.638;2023-08-08T08:55:40;100674.09;;;21.30;48.80
28344;BME280;15597;50.914;6.638;2023-08-08T08:58:06;100675.06;;;21.29;49.15
28344;BME280;15597;50.914;6.638;2023-08-08T09:00:32;100677.59;;;21.30;49.26
28344;BME280;15597;50.914;6.638;2023-08-08T09:02:59;100671.25;;;21.33;49.19
28344;BME280;15597;50.914;6.638;2023-08-08T09:05:25;100677.66;;;21.43;49.44
28344;BME280;15597;50.914;6.638;2023-08-08T09:07:51;100668.50;;;21.48;49.52
28344;BME280;15597;50.914;6.638;2023-08-08T09:10:18;100671.50;;;21.56;48.89
28344;BME280;15597;50.914;6.638;2023-08-08T09:12:44;100669.59;;;21.58;48.65
28344;BME280;15597;50.914;6.638;2023-08-08T09:15:11;100670.25;;;21.62;48.50
28344;BME280;15597;50.914;6.638;2023-08-08T09:17:43;100671.41;;;21.57;48.40
28344;BME280;15597;50.914;6.638;2023-08-08T09:20:11;100658.63;;;21.63;48.57
28344;BME280;15597;50.914;6.638;2023-08-08T09:22:38;100665.69;;;21.64;48.45
28344;BME280;15597;50.914;6.638;2023-08-08T09:25:06;100666.44;;;21.66;48.58
28344;BME280;15597;50.914;6.638;2023-08-08T09:27:32;100661.78;;;21.69;48.08
28344;BME280;15597;50.914;6.638;2023-08-08T09:29:57;100666.91;;;21.72;48.12
28344;BME280;15597;50.914;6.638;2023-08-08T09:32:28;100672.22;;;21.72;48.35
28344;BME280;15597;50.914;6.638;2023-08-08T09:34:56;100666.28;;;21.82;48.08
28344;BME280;15597;50.914;6.638;2023-08-08T09:37:22;100663.41;;;21.85;47.70
28344;BME280;15597;50.914;6.638;2023-08-08T09:39:56;100673.09;;;21.86;47.33
28344;BME280;15597;50.914;6.638;2023-08-08T09:42:21;100673.63;;;21.91;47.19
28344;BME280;15597;50.914;6.638;2023-08-08T09:44:47;100676.09;;;21.94;47.27
28344;BME280;15597;50.914;6.638;2023-08-08T09:47:14;100677.03;;;21.93;47.36
28344;BME280;15597;50.914;6.638;2023-08-08T09:49:40;100681.41;;;21.94;47.26
28344;BME280;15597;50.914;6.638;2023-08-08T09:52:06;100670.56;;;21.97;47.14
28344;BME280;15597;50.914;6.638;2023-08-08T09:54:32;100674.84;;;22.00;47.06
28344;BME280;15597;50.914;6.638;2023-08-08T09:56:59;100676.41;;;22.02;47.36
28344;BME280;15597;50.914;6.638;2023-08-08T09:59:25;100666.94;;;22.11;46.82
28344;BME280;15597;50.914;6.638;2023-08-08T10:01:51;100671.84;;;22.17;46.85
28344;BME280;15597;50.914;6.638;2023-08-08T10:04:18;100667.69;;;22.13;46.24
28344;BME280;15597;50.914;6.638;2023-08-08T10:06:44;100676.31;;;22.17;45.98
28344;BME280;15597;50.914;6.638;2023-08-08T10:09:09;100664.81;;;22.16;46.43
28344;BME280;15597;50.914;6.638;2023-08-08T10:11:35;100671.84;;;22.17;46.09
28344;BME280;15597;50.914;6.638;2023-08-08T10:14:02;100660.13;;;22.20;45.94
28344;BME280;15597;50.914;6.638;2023-08-08T10:16:32;100664.47;;;22.21;46.61
28344;BME280;15597;50.914;6.638;2023-08-08T10:19:00;100668.47;;;22.28;46.46
28344;BME280;15597;50.914;6.638;2023-08-08T10:21:27;100668.78;;;22.37;46.12
28344;BME280;15597;50.914;6.638;2023-08-08T10:24:04;100684.97;;;22.33;46.38
28344;BME280;15597;50.914;6.638;2023-08-08T10:26:30;100676.34;;;22.43;45.96
28344;BME280;15597;50.914;6.638;2023-08-08T10:28:57;100679.56;;;22.48;45.32
28344;BME280;15597;50.914;6.638;2023-08-08T10:31:23;100677.63;;;22.50;45.59
28344;BME280;15597;50.914;6.638;2023-08-08T10:33:49;100667.81;;;22.51;45.69
28344;BME280;15597;50.914;6.638;2023-08-08T10:36:15;100670.16;;;22.55;45.71
28344;BME280;15597;50.914;6.638;2023-08-08T10:38:49;100676.25;;;22.57;45.55
28344;BME280;15597;50.914;6.638;2023-08-08T10:41:25;100660.63;;;22.64;45.25
28344;BME280;15597;50.914;6.638;2023-08-08T10:43:57;100666.09;;;22.63;45.19
28344;BME280;15597;50.914;6.638;2023-08-08T10:46:24;100661.91;;;22.71;45.58
28344;BME280;15597;50.914;6.638;2023-08-08T10:48:52;100675.66;;;22.78;44.97
28344;BME280;15597;50.914;6.638;2023-08-08T10:51:18;100660.41;;;22.80;44.71
28344;BME280;15597;50.914;6.638;2023-08-08T10:53:45;100666.69;;;22.79;44.69
28344;BME280;15597;50.914;6.638;2023-08-08T10:56:13;100657.22;;;22.75;44.50
28344;BME280;15597;50.914;6.638;2023-08-08T10:58:47;100647.72;;;22.71;44.77
28344;BME280;15597;50.914;6.638;2023-08-08T11:01:13;100663.28;;;22.77;44.56
28344;BME280;15597;50.914;6.638;2023-08-08T11:03:40;100654.53;;;22.75;44.47
28344;BME280;15597;50.914;6.638;2023-08-08T11:06:07;100651.97;;;22.73;44.42
28344;BME280;15597;50.914;6.638;2023-08-08T11:08:34;100656.47;;;22.73;44.88
28344;BME280;15597;50.914;6.638;2023-08-08T11:11:02;100650.19;;;22.74;44.94
28344;BME280;15597;50.914;6.638;2023-08-08T11:13:29;100654.09;;;22.81;44.50
28344;BME280;15597;50.914;6.638;2023-08-08T11:15:55;100659.44;;;22.81;44.50
28344;BME280;15597;50.914;6.638;2023-08-08T11:18:21;100657.50;;;22.83;44.76
28344;BME280;15597;50.914;6.638;2023-08-08T11:20:48;100660.91;;;22.85;44.71
28344;BME280;15597;50.914;6.638;2023-08-08T11:23:14;100652.25;;;22.95;44.13
28344;BME280;15597;50.914;6.638;2023-08-08T11:25:41;100651.06;;;22.99;44.17
28344;BME280;15597;50.914;6.638;2023-08-08T11:28:08;100652.75;;;23.00;43.99
28344;BME280;15597;50.914;6.638;2023-08-08T11:30:37;100654.97;;;23.06;43.72
28344;BME280;15597;50.914;6.638;2023-08-08T11:33:03;100655.94;;;23.05;43.79
28344;BME280;15597;50.914;6.638;2023-08-08T11:35:29;100656.16;;;23.02;44.20
28344;BME280;15597;50.914;6.638;2023-08-08T11:37:57;100655.50;;;23.11;44.12
28344;BME280;15597;50.914;6.638;2023-08-08T11:40:25;100644.81;;;23.11;43.96
28344;BME280;15597;50.914;6.638;2023-08-08T11:42:52;100634.38;;;23.08;44.03
28344;BME280;15597;50.914;6.638;2023-08-08T11:45:18;100645.56;;;23.13;43.54
28344;BME280;15597;50.914;6.638;2023-08-08T11:47:52;100642.16;;;23.11;43.38
28344;BME280;15597;50.914;6.638;2023-08-08T11:50:21;100644.59;;;23.14;43.19
28344;BME280;15597;50.914;6.638;2023-08-08T11:52:53;100631.59;;;23.10;43.20
28344;BME280;15597;50.914;6.638;2023-08-08T11:55:19;100639.69;;;23.08;42.91
28344;BME280;15597;50.914;6.638;2023-08-08T11:57:48;100641.41;;;23.09;43.49
28344;BME280;15597;50.914;6.638;2023-08-08T12:00:14;100642.38;;;23.08;43.70
28344;BME280;15597;50.914;6.638;2023-08-08T12:02:41;100636.81;;;23.11;43.53
28344;BME280;15597;50.914;6.638;2023-08-08T12:05:09;100639.25;;;23.14;43.06
28344;BME280;15597;50.914;6.638;2023-08-08T12:07:36;100639.47;;;23.11;43.28
28344;BME280;15597;50.914;6.638;2023-08-08T12:10:04;100636.06;;;23.09;42.76
28344;BME280;15597;50.914;6.638;2023-08-08T12:12:31;100636.81;;;23.11;42.99
28344;BME280;15597;50.914;6.638;2023-08-08T12:15:03;100636.81;;;23.11;42.93
28344;BME280;15597;50.914;6.638;2023-08-08T12:17:29;100635.38;;;23.18;42.75
28344;BME280;15597;50.914;6.638;2023-08-08T12:19:59;100626.63;;;23.16;42.75
28344;BME280;15597;50.914;6.638;2023-08-08T12:22:24;100634.00;;;23.26;42.84
28344;BME280;15597;50.914;6.638;2023-08-08T12:24:50;100623.00;;;23.30;43.15
28344;BME280;15597;50.914;6.638;2023-08-08T12:27:16;100625.69;;;23.42;43.11
28344;BME280;15597;50.914;6.638;2023-08-08T12:29:41;100622.84;;;23.56;43.22
28344;BME280;15597;50.914;6.638;2023-08-08T12:32:07;100632.56;;;23.69;42.46
28344;BME280;15597;50.914;6.638;2023-08-08T12:34:34;100624.00;;;23.76;42.74
28344;BME280;15597;50.914;6.638;2023-08-08T12:37:00;100635.28;;;23.80;42.10
28344;BME280;15597;50.914;6.638;2023-08-08T12:39:26;100627.00;;;23.72;41.76
28344;BME280;15597;50.914;6.638;2023-08-08T12:41:52;100640.50;;;23.70;41.66
28344;BME280;15597;50.914;6.638;2023-08-08T12:44:17;100636.34;;;23.66;42.10
28344;BME280;15597;50.914;6.638;2023-08-08T12:46:43;100649.94;;;23.63;41.89
28344;BME280;15597;50.914;6.638;2023-08-08T12:49:09;100647.38;;;23.61;41.85